sensor_id;sensor_type;location;lat;lon;timestamp;temperature;humidity
70456;DHT22;57916;51.996;5.180;2022-09-02T00:01:21;20.90;40.10
70456;DHT22;57916;51.996;5.180;2022-09-02T00:03:50;20.90;40.40
70456;DHT22;57916;51.996;5.180;2022-09-02T00:06:18;20.90;40.50
70456;DHT22;57916;51.996;5.180;2022-09-02T00:08:45;20.80;40.40
70456;DHT22;57916;51.996;5.180;2022-09-02T00:11:15;20.80;40.40
70456;DHT22;57916;51.996;5.180;2022-09-02T00:13:43;20.80;40.50
70456;DHT22;57916;51.996;5.180;2022-09-02T00:16:11;20.80;40.60
70456;DHT22;57916;51.996;5.180;2022-09-02T00:18:39;20.80;40.60
70456;DHT22;57916;51.996;5.180;2022-09-02T00:21:12;20.80;40.80
70456;DHT22;57916;51.996;5.180;2022-09-02T00:23:41;20.80;40.60
70456;DHT22;57916;51.996;5.180;2022-09-02T00:26:09;20.80;40.60
70456;DHT22;57916;51.996;5.180;2022-09-02T00:28:36;20.80;40.60
70456;DHT22;57916;51.996;5.180;2022-09-02T00:31:04;20.80;41.90
70456;DHT22;57916;51.996;5.180;2022-09-02T00:33:31;20.80;40.60
70456;DHT22;57916;51.996;5.180;2022-09-02T00:36:02;20.70;40.80
70456;DHT22;57916;51.996;5.180;2022-09-02T00:38:31;20.80;40.80
70456;DHT22;57916;51.996;5.180;2022-09-02T00:41:06;20.80;40.90
70456;DHT22;57916;51.996;5.180;2022-09-02T00:43:48;20.80;40.90
70456;DHT22;57916;51.996;5.180;2022-09-02T00:46:18;20.80;41.20
70456;DHT22;57916;51.996;5.180;2022-09-02T00:48:56;20.70;41.10
70456;DHT22;57916;51.996;5.180;2022-09-02T00:51:26;20.80;41.30
70456;DHT22;57916;51.996;5.180;2022-09-02T00:53:53;20.80;42.40
70456;DHT22;57916;51.996;5.180;2022-09-02T00:56:25;20.80;41.50
70456;DHT22;57916;51.996;5.180;2022-09-02T00:58:54;20.80;41.10
70456;DHT22;57916;51.996;5.180;2022-09-02T01:01:22;20.80;41.70
70456;DHT22;57916;51.996;5.180;2022-09-02T01:03:49;20.80;41.40
70456;DHT22;57916;51.996;5.180;2022-09-02T01:06:20;20.80;41.40
70456;DHT22;57916;51.996;5.180;2022-09-02T01:09:13;20.80;41.30
70456;DHT22;57916;51.996;5.180;2022-09-02T01:11:41;20.70;41.30
70456;DHT22;57916;51.996;5.180;2022-09-02T01:14:09;20.70;41.50
70456;DHT22;57916;51.996;5.180;2022-09-02T01:16:51;20.70;43.30
70456;DHT22;57916;51.996;5.180;2022-09-02T01:19:24;20.70;42.10
70456;DHT22;57916;51.996;5.180;2022-09-02T01:21:54;20.70;42.30
70456;DHT22;57916;51.996;5.180;2022-09-02T01:24:24;20.70;42.70
70456;DHT22;57916;51.996;5.180;2022-09-02T01:26:53;20.70;42.30
70456;DHT22;57916;51.996;5.180;2022-09-02T01:29:21;20.70;42.00
70456;DHT22;57916;51.996;5.180;2022-09-02T01:32:06;20.70;42.50
70456;DHT22;57916;51.996;5.180;2022-09-02T01:34:33;20.70;42.30
70456;DHT22;57916;51.996;5.180;2022-09-02T01:37:00;20.70;41.70
70456;DHT22;57916;51.996;5.180;2022-09-02T01:39:27;20.60;41.70
70456;DHT22;57916;51.996;5.180;2022-09-02T01:41:54;20.50;41.60
70456;DHT22;57916;51.996;5.180;2022-09-02T01:44:21;20.40;41.70
70456;DHT22;57916;51.996;5.180;2022-09-02T01:46:49;20.30;41.80
70456;DHT22;57916;51.996;5.180;2022-09-02T01:49:17;20.30;42.00
70456;DHT22;57916;51.996;5.180;2022-09-02T01:51:44;20.20;42.00
70456;DHT22;57916;51.996;5.180;2022-09-02T01:54:11;20.20;42.20
70456;DHT22;57916;51.996;5.180;2022-09-02T01:56:38;20.10;42.50
70456;DHT22;57916;51.996;5.180;2022-09-02T01:59:05;20.10;42.50
70456;DHT22;57916;51.996;5.180;2022-09-02T02:01:34;20.10;42.50
70456;DHT22;57916;51.996;5.180;2022-09-02T02:04:03;20.00;42.50
70456;DHT22;57916;51.996;5.180;2022-09-02T02:06:30;20.00;42.70
70456;DHT22;57916;51.996;5.180;2022-09-02T02:08:58;20.00;42.90
70456;DHT22;57916;51.996;5.180;2022-09-02T02:11:26;19.90;42.90
70456;DHT22;57916;51.996;5.180;2022-09-02T02:13:57;19.80;42.90
70456;DHT22;57916;51.996;5.180;2022-09-02T02:16:25;19.80;43.00
70456;DHT22;57916;51.996;5.180;2022-09-02T02:18:52;19.80;43.00
70456;DHT22;57916;51.996;5.180;2022-09-02T02:21:19;19.70;43.10
70456;DHT22;57916;51.996;5.180;2022-09-02T02:23:46;19.70;43.40
70456;DHT22;57916;51.996;5.180;2022-09-02T02:26:13;19.70;43.40
70456;DHT22;57916;51.996;5.180;2022-09-02T02:28:40;19.60;43.30
70456;DHT22;57916;51.996;5.180;2022-09-02T02:31:08;19.60;43.50
70456;DHT22;57916;51.996;5.180;2022-09-02T02:33:36;19.60;43.70
70456;DHT22;57916;51.996;5.180;2022-09-02T02:36:06;19.50;43.80
70456;DHT22;57916;51.996;5.180;2022-09-02T02:38:52;19.50;43.90
70456;DHT22;57916;51.996;5.180;2022-09-02T02:41:19;19.50;43.90
70456;DHT22;57916;51.996;5.180;2022-09-02T02:43:46;19.40;43.80
70456;DHT22;57916;51.996;5.180;2022-09-02T02:46:14;19.40;43.90
70456;DHT22;57916;51.996;5.180;2022-09-02T02:48:41;19.40;44.20
70456;DHT22;57916;51.996;5.180;2022-09-02T02:51:09;19.30;44.20
70456;DHT22;57916;51.996;5.180;2022-09-02T02:53:36;19.30;44.40
70456;DHT22;57916;51.996;5.180;2022-09-02T02:56:04;19.30;44.30
70456;DHT22;57916;51.996;5.180;2022-09-02T02:58:31;19.20;44.30
70456;DHT22;57916;51.996;5.180;2022-09-02T03:01:00;19.20;44.50
70456;DHT22;57916;51.996;5.180;2022-09-02T03:03:28;19.10;44.60
70456;DHT22;57916;51.996;5.180;2022-09-02T03:05:56;19.10;45.90
70456;DHT22;57916;51.996;5.180;2022-09-02T03:08:25;19.00;45.00
70456;DHT22;57916;51.996;5.180;2022-09-02T03:10:54;19.00;45.00
70456;DHT22;57916;51.996;5.180;2022-09-02T03:13:24;19.00;45.00
70456;DHT22;57916;51.996;5.180;2022-09-02T03:15:55;18.90;45.20
70456;DHT22;57916;51.996;5.180;2022-09-02T03:18:22;18.90;45.40
70456;DHT22;57916;51.996;5.180;2022-09-02T03:20:50;18.90;45.40
70456;DHT22;57916;51.996;5.180;2022-09-02T03:23:17;18.90;45.50
70456;DHT22;57916;51.996;5.180;2022-09-02T03:25:47;18.90;45.60
70456;DHT22;57916;51.996;5.180;2022-09-02T03:28:23;18.90;45.60
70456;DHT22;57916;51.996;5.180;2022-09-02T03:30:50;18.80;45.40
70456;DHT22;57916;51.996;5.180;2022-09-02T03:33:17;18.80;46.30
70456;DHT22;57916;51.996;5.180;2022-09-02T03:35:45;18.80;45.30
70456;DHT22;57916;51.996;5.180;2022-09-02T03:38:14;18.80;45.30
70456;DHT22;57916;51.996;5.180;2022-09-02T03:40:42;18.80;45.40
70456;DHT22;57916;51.996;5.180;2022-09-02T03:43:08;18.80;45.50
70456;DHT22;57916;51.996;5.180;2022-09-02T03:45:36;18.80;45.50
70456;DHT22;57916;51.996;5.180;2022-09-02T03:48:11;18.80;46.50
70456;DHT22;57916;51.996;5.180;2022-09-02T03:50:41;18.80;45.70
70456;DHT22;57916;51.996;5.180;2022-09-02T03:53:12;18.80;45.90
70456;DHT22;57916;51.996;5.180;2022-09-02T03:55:48;18.80;46.10
70456;DHT22;57916;51.996;5.180;2022-09-02T03:58:18;18.70;46.10
70456;DHT22;57916;51.996;5.180;2022-09-02T04:00:50;18.70;46.10
70456;DHT22;57916;51.996;5.180;2022-09-02T04:03:19;18.70;46.20
70456;DHT22;57916;51.996;5.180;2022-09-02T04:05:48;18.70;46.20
70456;DHT22;57916;51.996;5.180;2022-09-02T04:08:18;18.70;46.40
70456;DHT22;57916;51.996;5.180;2022-09-02T04:10:46;18.70;46.40
70456;DHT22;57916;51.996;5.180;2022-09-02T04:13:13;18.70;46.30
70456;DHT22;57916;51.996;5.180;2022-09-02T04:15:44;18.70;46.20
70456;DHT22;57916;51.996;5.180;2022-09-02T04:18:16;18.70;46.10
70456;DHT22;57916;51.996;5.180;2022-09-02T04:20:43;18.70;46.10
70456;DHT22;57916;51.996;5.180;2022-09-02T04:23:11;18.70;46.10
70456;DHT22;57916;51.996;5.180;2022-09-02T04:25:42;18.70;46.30
70456;DHT22;57916;51.996;5.180;2022-09-02T04:28:10;18.70;46.50
70456;DHT22;57916;51.996;5.180;2022-09-02T04:30:40;18.70;46.40
70456;DHT22;57916;51.996;5.180;2022-09-02T04:33:08;18.70;46.30
70456;DHT22;57916;51.996;5.180;2022-09-02T04:35:39;18.70;46.50
70456;DHT22;57916;51.996;5.180;2022-09-02T04:38:08;18.70;46.40
70456;DHT22;57916;51.996;5.180;2022-09-02T04:40:39;18.70;46.40
70456;DHT22;57916;51.996;5.180;2022-09-02T04:43:06;18.70;46.50
70456;DHT22;57916;51.996;5.180;2022-09-02T04:45:33;18.70;46.80
70456;DHT22;57916;51.996;5.180;2022-09-02T04:48:01;18.70;46.60
70456;DHT22;57916;51.996;5.180;2022-09-02T04:50:29;18.70;46.80
70456;DHT22;57916;51.996;5.180;2022-09-02T04:52:57;18.70;46.90
70456;DHT22;57916;51.996;5.180;2022-09-02T04:55:26;18.70;46.80
70456;DHT22;57916;51.996;5.180;2022-09-02T04:57:54;18.70;47.00
70456;DHT22;57916;51.996;5.180;2022-09-02T05:00:21;18.70;46.90
70456;DHT22;57916;51.996;5.180;2022-09-02T05:03:06;18.60;46.80
70456;DHT22;57916;51.996;5.180;2022-09-02T05:05:34;18.70;46.90
70456;DHT22;57916;51.996;5.180;2022-09-02T05:08:01;18.70;47.10
70456;DHT22;57916;51.996;5.180;2022-09-02T05:10:31;18.70;47.00
70456;DHT22;57916;51.996;5.180;2022-09-02T05:12:59;18.60;47.30
70456;DHT22;57916;51.996;5.180;2022-09-02T05:15:28;18.70;47.20
70456;DHT22;57916;51.996;5.180;2022-09-02T05:17:57;18.60;47.10
70456;DHT22;57916;51.996;5.180;2022-09-02T05:20:24;18.60;47.20
70456;DHT22;57916;51.996;5.180;2022-09-02T05:22:56;18.60;47.20
70456;DHT22;57916;51.996;5.180;2022-09-02T05:25:23;18.60;47.20
70456;DHT22;57916;51.996;5.180;2022-09-02T05:27:51;18.60;47.10
70456;DHT22;57916;51.996;5.180;2022-09-02T05:31:02;18.60;47.30
70456;DHT22;57916;51.996;5.180;2022-09-02T05:33:33;18.60;47.00
70456;DHT22;57916;51.996;5.180;2022-09-02T05:36:05;18.60;47.20
70456;DHT22;57916;51.996;5.180;2022-09-02T05:38:33;18.60;47.50
70456;DHT22;57916;51.996;5.180;2022-09-02T05:41:06;18.70;47.40
70456;DHT22;57916;51.996;5.180;2022-09-02T05:43:36;18.80;47.50
70456;DHT22;57916;51.996;5.180;2022-09-02T05:46:08;18.80;47.30
70456;DHT22;57916;51.996;5.180;2022-09-02T05:48:37;19.00;47.20
70456;DHT22;57916;51.996;5.180;2022-09-02T05:51:24;19.10;46.90
70456;DHT22;57916;51.996;5.180;2022-09-02T05:53:54;19.20;46.40
70456;DHT22;57916;51.996;5.180;2022-09-02T05:56:22;19.30;46.60
70456;DHT22;57916;51.996;5.180;2022-09-02T05:58:49;19.40;46.60
70456;DHT22;57916;51.996;5.180;2022-09-02T06:01:18;19.60;46.40
70456;DHT22;57916;51.996;5.180;2022-09-02T06:03:46;19.90;46.00
70456;DHT22;57916;51.996;5.180;2022-09-02T06:06:13;20.20;45.50
70456;DHT22;57916;51.996;5.180;2022-09-02T06:08:40;20.60;44.40
70456;DHT22;57916;51.996;5.180;2022-09-02T06:11:10;20.90;43.70
70456;DHT22;57916;51.996;5.180;2022-09-02T06:13:40;21.20;43.20
70456;DHT22;57916;51.996;5.180;2022-09-02T06:16:10;21.50;42.50
70456;DHT22;57916;51.996;5.180;2022-09-02T06:18:42;21.70;41.90
70456;DHT22;57916;51.996;5.180;2022-09-02T06:21:10;21.70;41.50
70456;DHT22;57916;51.996;5.180;2022-09-02T06:23:41;21.70;41.60
70456;DHT22;57916;51.996;5.180;2022-09-02T06:26:11;21.60;41.40
70456;DHT22;57916;51.996;5.180;2022-09-02T06:28:38;21.60;41.50
70456;DHT22;57916;51.996;5.180;2022-09-02T06:31:12;21.80;41.30
70456;DHT22;57916;51.996;5.180;2022-09-02T06:33:43;22.00;41.10
70456;DHT22;57916;51.996;5.180;2022-09-02T06:36:14;22.30;41.70
70456;DHT22;57916;51.996;5.180;2022-09-02T06:38:44;22.50;40.00
70456;DHT22;57916;51.996;5.180;2022-09-02T06:41:15;22.70;40.10
70456;DHT22;57916;51.996;5.180;2022-09-02T06:43:44;22.90;39.40
70456;DHT22;57916;51.996;5.180;2022-09-02T06:46:25;23.10;39.10
70456;DHT22;57916;51.996;5.180;2022-09-02T06:48:55;23.30;38.60
70456;DHT22;57916;51.996;5.180;2022-09-02T06:51:26;23.60;38.50
70456;DHT22;57916;51.996;5.180;2022-09-02T06:53:55;23.80;39.40
70456;DHT22;57916;51.996;5.180;2022-09-02T06:56:25;24.00;38.00
70456;DHT22;57916;51.996;5.180;2022-09-02T06:58:53;24.20;37.40
70456;DHT22;57916;51.996;5.180;2022-09-02T07:01:27;24.50;37.00
70456;DHT22;57916;51.996;5.180;2022-09-02T07:03:56;24.60;36.80
70456;DHT22;57916;51.996;5.180;2022-09-02T07:06:44;24.80;35.90
70456;DHT22;57916;51.996;5.180;2022-09-02T07:09:18;24.80;35.60
70456;DHT22;57916;51.996;5.180;2022-09-02T07:11:47;24.80;36.00
70456;DHT22;57916;51.996;5.180;2022-09-02T07:14:19;24.70;35.90
70456;DHT22;57916;51.996;5.180;2022-09-02T07:16:53;24.70;36.00
70456;DHT22;57916;51.996;5.180;2022-09-02T07:19:23;24.70;36.20
70456;DHT22;57916;51.996;5.180;2022-09-02T07:21:52;24.80;36.30
70456;DHT22;57916;51.996;5.180;2022-09-02T07:24:21;24.80;35.90
70456;DHT22;57916;51.996;5.180;2022-09-02T07:26:49;24.90;35.80
70456;DHT22;57916;51.996;5.180;2022-09-02T07:29:22;25.00;35.60
70456;DHT22;57916;51.996;5.180;2022-09-02T07:31:49;24.90;35.00
70456;DHT22;57916;51.996;5.180;2022-09-02T07:34:18;24.80;35.90
70456;DHT22;57916;51.996;5.180;2022-09-02T07:36:47;24.70;35.50
70456;DHT22;57916;51.996;5.180;2022-09-02T07:39:18;24.60;36.50
70456;DHT22;57916;51.996;5.180;2022-09-02T07:41:49;24.60;36.20
70456;DHT22;57916;51.996;5.180;2022-09-02T07:44:21;24.70;36.90
70456;DHT22;57916;51.996;5.180;2022-09-02T07:46:49;24.70;36.00
70456;DHT22;57916;51.996;5.180;2022-09-02T07:49:19;24.70;36.10
70456;DHT22;57916;51.996;5.180;2022-09-02T07:51:50;24.70;37.20
70456;DHT22;57916;51.996;5.180;2022-09-02T07:54:23;24.80;36.50
70456;DHT22;57916;51.996;5.180;2022-09-02T07:56:52;24.80;36.20
70456;DHT22;57916;51.996;5.180;2022-09-02T07:59:20;25.00;36.20
70456;DHT22;57916;51.996;5.180;2022-09-02T08:01:51;25.10;36.90
70456;DHT22;57916;51.996;5.180;2022-09-02T08:04:20;25.40;35.70
70456;DHT22;57916;51.996;5.180;2022-09-02T08:06:52;25.70;35.50
70456;DHT22;57916;51.996;5.180;2022-09-02T08:09:20;25.90;34.70
70456;DHT22;57916;51.996;5.180;2022-09-02T08:11:48;26.00;35.00
70456;DHT22;57916;51.996;5.180;2022-09-02T08:14:21;26.20;33.80
70456;DHT22;57916;51.996;5.180;2022-09-02T08:16:51;26.20;33.90
70456;DHT22;57916;51.996;5.180;2022-09-02T08:19:19;26.20;33.60
70456;DHT22;57916;51.996;5.180;2022-09-02T08:21:46;26.10;33.90
70456;DHT22;57916;51.996;5.180;2022-09-02T08:24:13;26.10;34.70
70456;DHT22;57916;51.996;5.180;2022-09-02T08:26:41;26.10;33.90
70456;DHT22;57916;51.996;5.180;2022-09-02T08:29:08;26.00;33.90
70456;DHT22;57916;51.996;5.180;2022-09-02T08:31:36;26.00;34.50
70456;DHT22;57916;51.996;5.180;2022-09-02T08:34:03;25.90;33.90
70456;DHT22;57916;51.996;5.180;2022-09-02T08:36:30;25.90;34.60
70456;DHT22;57916;51.996;5.180;2022-09-02T08:39:01;25.90;34.80
70456;DHT22;57916;51.996;5.180;2022-09-02T08:43:59;26.20;34.80
70456;DHT22;57916;51.996;5.180;2022-09-02T08:46:29;26.40;35.60
70456;DHT22;57916;51.996;5.180;2022-09-02T08:49:02;26.60;34.50
70456;DHT22;57916;51.996;5.180;2022-09-02T08:56:45;27.00;33.80
70456;DHT22;57916;51.996;5.180;2022-09-02T08:59:14;27.20;33.20
70456;DHT22;57916;51.996;5.180;2022-09-02T09:07:19;27.40;33.10
70456;DHT22;57916;51.996;5.180;2022-09-02T09:10:05;27.50;33.50
70456;DHT22;57916;51.996;5.180;2022-09-02T09:17:59;27.60;31.50
70456;DHT22;57916;51.996;5.180;2022-09-02T09:20:34;27.50;31.70
70456;DHT22;57916;51.996;5.180;2022-09-02T09:23:24;27.30;31.80
70456;DHT22;57916;51.996;5.180;2022-09-02T09:25:58;27.20;32.20
70456;DHT22;57916;51.996;5.180;2022-09-02T09:28:30;27.10;33.20
70456;DHT22;57916;51.996;5.180;2022-09-02T09:30:59;27.20;33.20
70456;DHT22;57916;51.996;5.180;2022-09-02T09:33:26;27.30;33.60
70456;DHT22;57916;51.996;5.180;2022-09-02T09:35:54;27.40;33.40
70456;DHT22;57916;51.996;5.180;2022-09-02T09:38:41;27.50;32.90
70456;DHT22;57916;51.996;5.180;2022-09-02T09:41:21;27.50;32.90
70456;DHT22;57916;51.996;5.180;2022-09-02T09:43:49;27.60;32.90
70456;DHT22;57916;51.996;5.180;2022-09-02T09:46:34;27.80;32.90
70456;DHT22;57916;51.996;5.180;2022-09-02T09:49:01;27.90;32.20
70456;DHT22;57916;51.996;5.180;2022-09-02T09:51:28;27.80;32.30
70456;DHT22;57916;51.996;5.180;2022-09-02T09:54:15;27.90;32.60
70456;DHT22;57916;51.996;5.180;2022-09-02T09:56:42;28.10;33.20
70456;DHT22;57916;51.996;5.180;2022-09-02T10:01:57;28.50;32.40
70456;DHT22;57916;51.996;5.180;2022-09-02T10:04:31;28.70;32.20
70456;DHT22;57916;51.996;5.180;2022-09-02T10:07:10;28.90;31.40
70456;DHT22;57916;51.996;5.180;2022-09-02T10:09:39;29.00;32.00
70456;DHT22;57916;51.996;5.180;2022-09-02T10:12:11;29.10;31.10
70456;DHT22;57916;51.996;5.180;2022-09-02T10:14:42;29.30;31.20
70456;DHT22;57916;51.996;5.180;2022-09-02T10:17:24;29.40;31.00
70456;DHT22;57916;51.996;5.180;2022-09-02T10:22:40;29.80;31.30
70456;DHT22;57916;51.996;5.180;2022-09-02T10:25:43;30.10;30.10
70456;DHT22;57916;51.996;5.180;2022-09-02T10:28:42;30.10;30.90
70456;DHT22;57916;51.996;5.180;2022-09-02T10:37:23;30.40;30.00
70456;DHT22;57916;51.996;5.180;2022-09-02T10:40:04;30.60;29.90
70456;DHT22;57916;51.996;5.180;2022-09-02T10:45:15;30.90;29.80
70456;DHT22;57916;51.996;5.180;2022-09-02T10:56:08;31.30;28.60
70456;DHT22;57916;51.996;5.180;2022-09-02T11:01:30;31.50;28.30
70456;DHT22;57916;51.996;5.180;2022-09-02T11:04:07;31.70;28.30
70456;DHT22;57916;51.996;5.180;2022-09-02T11:06:39;31.90;27.80
70456;DHT22;57916;51.996;5.180;2022-09-02T11:12:13;32.00;28.10
70456;DHT22;57916;51.996;5.180;2022-09-02T11:17:38;32.00;27.60
70456;DHT22;57916;51.996;5.180;2022-09-02T11:20:18;31.90;27.20
70456;DHT22;57916;51.996;5.180;2022-09-02T11:25:24;32.00;27.50
70456;DHT22;57916;51.996;5.180;2022-09-02T11:28:05;31.90;26.90
70456;DHT22;57916;51.996;5.180;2022-09-02T11:30:53;31.70;27.00
70456;DHT22;57916;51.996;5.180;2022-09-02T11:34:14;31.60;27.30
70456;DHT22;57916;51.996;5.180;2022-09-02T11:36:16;31.60;27.30
70456;DHT22;57916;51.996;5.180;2022-09-02T11:38:50;31.80;27.10
70456;DHT22;57916;51.996;5.180;2022-09-02T11:41:45;31.80;27.10
70456;DHT22;57916;51.996;5.180;2022-09-02T11:55:15;31.70;27.10
70456;DHT22;57916;51.996;5.180;2022-09-02T11:57:45;31.70;26.10
70456;DHT22;57916;51.996;5.180;2022-09-02T12:03:27;31.60;24.50
70456;DHT22;57916;51.996;5.180;2022-09-02T12:06:16;31.60;25.10
70456;DHT22;57916;51.996;5.180;2022-09-02T12:08:56;31.60;24.60
70456;DHT22;57916;51.996;5.180;2022-09-02T12:11:45;31.50;24.70
70456;DHT22;57916;51.996;5.180;2022-09-02T12:17:01;31.50;23.90
70456;DHT22;57916;51.996;5.180;2022-09-02T12:24:55;31.80;23.60
70456;DHT22;57916;51.996;5.180;2022-09-02T12:27:36;31.80;23.40
70456;DHT22;57916;51.996;5.180;2022-09-02T12:30:07;31.80;23.80
70456;DHT22;57916;51.996;5.180;2022-09-02T12:40:47;31.90;23.70
70456;DHT22;57916;51.996;5.180;2022-09-02T12:46:05;31.80;24.00
70456;DHT22;57916;51.996;5.180;2022-09-02T12:48:44;31.70;23.80
70456;DHT22;57916;51.996;5.180;2022-09-02T12:57:09;31.30;24.40
70456;DHT22;57916;51.996;5.180;2022-09-02T12:59:40;31.30;23.90
70456;DHT22;57916;51.996;5.180;2022-09-02T13:05:23;31.30;25.10
70456;DHT22;57916;51.996;5.180;2022-09-02T13:16:43;30.80;25.50
70456;DHT22;57916;51.996;5.180;2022-09-02T13:22:34;30.30;25.70
70456;DHT22;57916;51.996;5.180;2022-09-02T13:34:06;29.50;26.30
70456;DHT22;57916;51.996;5.180;2022-09-02T13:36:39;29.40;26.30
70456;DHT22;57916;51.996;5.180;2022-09-02T13:39:14;29.30;26.20
70456;DHT22;57916;51.996;5.180;2022-09-02T13:41:42;29.20;26.50
70456;DHT22;57916;51.996;5.180;2022-09-02T13:44:12;29.10;26.60
70456;DHT22;57916;51.996;5.180;2022-09-02T13:46:47;29.00;27.10
70456;DHT22;57916;51.996;5.180;2022-09-02T13:49:26;29.00;27.10
70456;DHT22;57916;51.996;5.180;2022-09-02T13:51:55;29.00;27.40
70456;DHT22;57916;51.996;5.180;2022-09-02T13:54:33;28.90;27.70
70456;DHT22;57916;51.996;5.180;2022-09-02T13:57:05;29.00;28.70
70456;DHT22;57916;51.996;5.180;2022-09-02T13:59:36;28.90;27.90
70456;DHT22;57916;51.996;5.180;2022-09-02T14:02:27;28.90;27.70
70456;DHT22;57916;51.996;5.180;2022-09-02T14:07:40;28.90;27.30
70456;DHT22;57916;51.996;5.180;2022-09-02T14:10:10;28.90;27.50
70456;DHT22;57916;51.996;5.180;2022-09-02T14:12:38;28.90;27.60
70456;DHT22;57916;51.996;5.180;2022-09-02T14:15:09;28.90;27.90
70456;DHT22;57916;51.996;5.180;2022-09-02T14:17:36;28.90;27.30
70456;DHT22;57916;51.996;5.180;2022-09-02T14:20:22;28.90;27.10
70456;DHT22;57916;51.996;5.180;2022-09-02T14:25:49;28.90;27.30
70456;DHT22;57916;51.996;5.180;2022-09-02T14:28:25;28.90;27.40
70456;DHT22;57916;51.996;5.180;2022-09-02T14:31:02;28.90;28.50
70456;DHT22;57916;51.996;5.180;2022-09-02T14:33:42;29.00;27.20
70456;DHT22;57916;51.996;5.180;2022-09-02T14:39:08;28.80;27.30
70456;DHT22;57916;51.996;5.180;2022-09-02T14:41:43;28.90;27.60
70456;DHT22;57916;51.996;5.180;2022-09-02T14:44:33;28.90;27.90
70456;DHT22;57916;51.996;5.180;2022-09-02T14:47:06;28.90;27.00
70456;DHT22;57916;51.996;5.180;2022-09-02T14:52:31;29.10;27.50
70456;DHT22;57916;51.996;5.180;2022-09-02T14:55:01;29.10;27.70
70456;DHT22;57916;51.996;5.180;2022-09-02T14:57:34;29.10;27.00
70456;DHT22;57916;51.996;5.180;2022-09-02T15:00:05;29.10;26.70
70456;DHT22;57916;51.996;5.180;2022-09-02T15:02:34;29.10;27.20
70456;DHT22;57916;51.996;5.180;2022-09-02T15:05:05;29.10;26.90
70456;DHT22;57916;51.996;5.180;2022-09-02T15:07:33;29.10;27.10
70456;DHT22;57916;51.996;5.180;2022-09-02T15:10:00;29.10;26.70
70456;DHT22;57916;51.996;5.180;2022-09-02T15:12:38;29.20;26.60
70456;DHT22;57916;51.996;5.180;2022-09-02T15:15:07;29.10;26.90
70456;DHT22;57916;51.996;5.180;2022-09-02T15:17:34;29.20;27.10
70456;DHT22;57916;51.996;5.180;2022-09-02T15:20:01;29.30;26.90
70456;DHT22;57916;51.996;5.180;2022-09-02T15:22:28;29.20;26.80
70456;DHT22;57916;51.996;5.180;2022-09-02T15:24:55;29.10;26.50
70456;DHT22;57916;51.996;5.180;2022-09-02T15:27:23;29.10;27.30
70456;DHT22;57916;51.996;5.180;2022-09-02T15:29:50;29.10;26.90
70456;DHT22;57916;51.996;5.180;2022-09-02T15:32:17;29.10;26.80
70456;DHT22;57916;51.996;5.180;2022-09-02T15:34:44;29.00;26.90
70456;DHT22;57916;51.996;5.180;2022-09-02T15:37:11;29.10;27.10
70456;DHT22;57916;51.996;5.180;2022-09-02T15:39:39;29.00;27.20
70456;DHT22;57916;51.996;5.180;2022-09-02T15:42:06;28.90;27.00
70456;DHT22;57916;51.996;5.180;2022-09-02T15:44:33;28.90;26.60
70456;DHT22;57916;51.996;5.180;2022-09-02T15:47:00;28.90;27.10
70456;DHT22;57916;51.996;5.180;2022-09-02T15:49:28;28.90;26.80
70456;DHT22;57916;51.996;5.180;2022-09-02T15:51:57;28.80;27.00
70456;DHT22;57916;51.996;5.180;2022-09-02T15:54:24;28.80;27.60
70456;DHT22;57916;51.996;5.180;2022-09-02T15:57:10;28.80;27.50
70456;DHT22;57916;51.996;5.180;2022-09-02T15:59:37;28.80;27.50
70456;DHT22;57916;51.996;5.180;2022-09-02T16:02:04;28.80;27.70
70456;DHT22;57916;51.996;5.180;2022-09-02T16:04:31;28.80;27.80
70456;DHT22;57916;51.996;5.180;2022-09-02T16:06:59;28.80;27.50
70456;DHT22;57916;51.996;5.180;2022-09-02T16:15:24;28.80;27.00
70456;DHT22;57916;51.996;5.180;2022-09-02T16:18:06;28.70;27.20
70456;DHT22;57916;51.996;5.180;2022-09-02T16:20:33;28.80;27.50
70456;DHT22;57916;51.996;5.180;2022-09-02T16:23:00;28.90;27.40
70456;DHT22;57916;51.996;5.180;2022-09-02T16:25:27;28.90;26.80
70456;DHT22;57916;51.996;5.180;2022-09-02T16:27:54;28.80;26.90
70456;DHT22;57916;51.996;5.180;2022-09-02T16:30:22;28.80;27.30
70456;DHT22;57916;51.996;5.180;2022-09-02T16:32:49;28.80;27.20
70456;DHT22;57916;51.996;5.180;2022-09-02T16:35:17;28.80;27.40
70456;DHT22;57916;51.996;5.180;2022-09-02T16:37:44;28.70;27.20
70456;DHT22;57916;51.996;5.180;2022-09-02T16:40:11;28.60;27.10
70456;DHT22;57916;51.996;5.180;2022-09-02T16:42:47;28.50;27.50
70456;DHT22;57916;51.996;5.180;2022-09-02T16:45:14;28.40;27.10
70456;DHT22;57916;51.996;5.180;2022-09-02T16:47:41;28.40;27.70
70456;DHT22;57916;51.996;5.180;2022-09-02T16:50:08;28.40;27.60
70456;DHT22;57916;51.996;5.180;2022-09-02T16:52:36;28.40;27.90
70456;DHT22;57916;51.996;5.180;2022-09-02T16:55:03;28.40;28.10
70456;DHT22;57916;51.996;5.180;2022-09-02T16:57:31;28.30;28.20
70456;DHT22;57916;51.996;5.180;2022-09-02T16:59:58;28.40;28.00
70456;DHT22;57916;51.996;5.180;2022-09-02T17:02:25;28.30;27.80
70456;DHT22;57916;51.996;5.180;2022-09-02T17:04:53;28.20;27.70
70456;DHT22;57916;51.996;5.180;2022-09-02T17:07:20;28.20;27.90
70456;DHT22;57916;51.996;5.180;2022-09-02T17:09:47;28.10;28.00
70456;DHT22;57916;51.996;5.180;2022-09-02T17:12:14;28.10;28.40
70456;DHT22;57916;51.996;5.180;2022-09-02T17:14:41;28.10;28.40
70456;DHT22;57916;51.996;5.180;2022-09-02T17:17:08;28.00;28.50
70456;DHT22;57916;51.996;5.180;2022-09-02T17:19:40;28.00;28.60
70456;DHT22;57916;51.996;5.180;2022-09-02T17:22:07;28.00;28.60
70456;DHT22;57916;51.996;5.180;2022-09-02T17:24:35;27.90;28.60
70456;DHT22;57916;51.996;5.180;2022-09-02T17:27:03;27.80;28.60
70456;DHT22;57916;51.996;5.180;2022-09-02T17:29:30;27.80;28.90
70456;DHT22;57916;51.996;5.180;2022-09-02T17:32:14;27.70;28.80
70456;DHT22;57916;51.996;5.180;2022-09-02T17:34:41;27.70;28.90
70456;DHT22;57916;51.996;5.180;2022-09-02T17:37:08;27.60;29.20
70456;DHT22;57916;51.996;5.180;2022-09-02T17:39:35;27.60;29.30
70456;DHT22;57916;51.996;5.180;2022-09-02T17:42:03;27.50;29.60
70456;DHT22;57916;51.996;5.180;2022-09-02T17:44:34;27.50;29.40
70456;DHT22;57916;51.996;5.180;2022-09-02T17:47:07;27.50;29.30
70456;DHT22;57916;51.996;5.180;2022-09-02T17:49:36;27.40;29.40
70456;DHT22;57916;51.996;5.180;2022-09-02T17:52:05;27.30;29.40
70456;DHT22;57916;51.996;5.180;2022-09-02T17:54:34;27.30;29.60
70456;DHT22;57916;51.996;5.180;2022-09-02T17:57:30;27.30;29.90
70456;DHT22;57916;51.996;5.180;2022-09-02T18:00:14;27.30;29.80
70456;DHT22;57916;51.996;5.180;2022-09-02T18:03:05;27.20;29.60
70456;DHT22;57916;51.996;5.180;2022-09-02T18:08:56;27.10;29.80
70456;DHT22;57916;51.996;5.180;2022-09-02T18:11:24;27.00;29.80